Airfield :
LOGIN :

Register | Disclaimer

   EN    FR    IT 

 










Legend :    VFR   Marginal VFR   IFR   Intensive IFR   Very Intensive IFR
Visi :
Ceiling :
>= 8 km
>= 3000ft
5 to 8 km
1000 to 3000 ft
1500m to 5 km
500 to 1000 ft
800 to 1500m
200 to 500 ft
< 800m
< 200 ft
Symbols :   Thunderstorms  Fog  Heavy snow  Heavy precipitations  Wind > 20 kt
SIGMETs :     Misc.  Thunderstorms  Icing  Turbulence  Mountain Waves  Volcanic Ashes







- Airport Elevation : 405 ft
- IATA code : ODH


EGVO - RAF Odiham

CURRENT METAR :
  • 270350Z 04010KT 9999 BKN011 13/11 Q1028 RMK GRN

EXPIRED METARs :
  • 270250Z AUTO 04011KT 9999 OVC011/// 13/11 Q1028
  • 270150Z AUTO 04013KT 9999 OVC012/// 13/11 Q1028

TAF TAF EGVO
Valid from the 27 at 04:00 until the 27 at 16:00 UTC


270401Z 2704/2716 04012KT 9999 BKN010
BECMG 2706/2709 FEW016
PROB30
TEMPO 2713/2716 07015G25KT
No reported NOTAMs for that airfield.
3 SIGMETs reported for the London FIR (EGTT) :
 
Embedded thunderstorms
EGTT SIGMET 05 VALID 270400/270700 EGRR
EGTT LONDON FIR EMBD TS FCST WI N4850 W00800 - N5008 W00800 - N4947 W00659 - N4909 W00628 - N4908 W00629 - N4850 W00800 TOP FL380 MOV NW 20KT NC=
Severe turbulence
EGTT SIGMET 04 VALID 270400/270800 EGRR
EGTT LONDON FIR SEV TURB FCST WI N5003 W00353 - N4944 W00627 - N5013 W00629 - N5057 W00416 - N5003 W00353 SFC/FL060 STNR WKN=
Embedded thunderstorms
EGTT SIGMET 03 VALID 270200/270400 EGRR
EGTT LONDON FIR EMBD TS FCST WI N4850 W00800 - N4955 W00800 - N4900 W00706 - N4850 W00800 TOP FL380 STNR NC=



MET'MAP, your aeronautical weather chart ! - Copyright ORBIFLY December 2007 - Disclaimer

ORBIFLY MET'MAP TEAM :

Programming & Development : Alexandra Zaïnal
Concept & Development : Baudouin d'Aumeries
Co-Development & Prog : Marc-Olivier Méhu
Technical & hardware support : Manuel Goepfert

Contact : metmap@orbifly.com




SOURCES & CREDITS :

   NOAA